Time;durP1;ratioP1;P1;durP2;ratioP2;P2;SDS_P1;SDS_P2;PMS_P1;PMS_P2;Temp;Humidity;BMP_temperature;BMP_pressure;BME280_temperature;BME280_humidity;BME280_pressure;Samples;Min_cycle;Max_cycle;Signal;HPM_P1;HPM_P2
2024/01/18 00:01:37;;;;;;;29.58;18.45;;;;;;;-3.33;100.00;98834.41;10456704;28;20086;-77
2024/01/18 00:06:38;;;;;;;29.47;20.30;;;;;;;-3.29;100.00;98854.31;10440137;28;20066;-77
2024/01/18 00:11:38;;;;;;;37.97;23.80;;;;;;;-3.29;100.00;98865.41;10467023;27;20377;-77
2024/01/18 00:16:39;;;;;;;28.13;15.40;;;;;;;-3.40;100.00;98864.69;10438271;28;20041;-77
2024/01/18 00:21:39;;;;;;;42.47;23.80;;;;;;;-3.51;100.00;98863.03;10440771;28;20044;-77
2024/01/18 00:26:40;;;;;;;29.03;20.87;;;;;;;-3.60;100.00;98863.25;10434420;28;20052;-77
2024/01/18 00:31:40;;;;;;;29.63;23.17;;;;;;;-3.67;100.00;98871.25;10438246;28;20048;-77
2024/01/18 00:36:41;;;;;;;29.47;21.77;;;;;;;-3.71;100.00;98856.47;10445392;28;20032;-77
2024/01/18 00:41:42;;;;;;;39.63;21.30;;;;;;;-3.71;100.00;98874.38;10448252;28;20049;-77
2024/01/18 00:46:42;;;;;;;34.30;22.63;;;;;;;-3.75;100.00;98895.38;10448267;28;20128;-77
2024/01/18 00:51:43;;;;;;;30.33;22.53;;;;;;;-3.77;100.00;98891.84;10447204;28;20091;-77
2024/01/18 00:56:43;;;;;;;30.03;23.50;;;;;;;-3.76;100.00;98893.59;10464721;27;20109;-78
2024/01/18 01:01:44;;;;;;;34.63;21.17;;;;;;;-3.77;100.00;98909.72;10531613;28;20127;-78
2024/01/18 01:06:44;;;;;;;36.57;20.87;;;;;;;-3.78;100.00;98908.84;10528211;28;20122;-78
2024/01/18 01:11:45;;;;;;;29.07;22.33;;;;;;;-3.76;100.00;98920.09;10531339;28;20090;-77
2024/01/18 01:16:46;;;;;;;40.00;24.37;;;;;;;-3.70;100.00;98927.28;10527894;28;20089;-78
2024/01/18 01:21:46;;;;;;;32.63;22.93;;;;;;;-3.65;100.00;98932.75;10523580;27;20434;-79
2024/01/18 01:26:47;;;;;;;30.40;21.10;;;;;;;-3.63;100.00;98934.63;10508503;27;20075;-78
2024/01/18 01:31:48;;;;;;;36.97;23.63;;;;;;;-3.58;100.00;98935.84;10511513;27;20064;-78
2024/01/18 01:36:49;;;;;;;31.38;24.35;;;;;;;-3.52;100.00;98945.66;10529662;28;20100;-78
2024/01/18 01:41:49;;;;;;;37.37;23.40;;;;;;;-3.49;100.00;98947.53;10526451;28;20058;-78
2024/01/18 01:46:50;;;;;;;40.93;23.27;;;;;;;-3.55;100.00;98951.41;10528018;28;20063;-79
2024/01/18 01:51:50;;;;;;;35.83;22.37;;;;;;;-3.57;100.00;98954.66;10525254;27;20127;-79
2024/01/18 01:56:51;;;;;;;30.57;23.97;;;;;;;-3.57;100.00;98963.22;10508777;27;20068;-78
2024/01/18 02:01:52;;;;;;;27.95;23.77;;;;;;;-3.60;100.00;98962.13;10521136;27;20082;-78
2024/01/18 02:06:54;;;;;;;41.50;25.20;;;;;;;-3.63;100.00;98965.31;10506308;27;20046;-79
2024/01/18 02:11:54;;;;;;;39.20;28.48;;;;;;;-3.61;100.00;98968.00;10518617;27;20047;-79
2024/01/18 02:16:56;;;;;;;47.00;27.33;;;;;;;-3.59;100.00;98979.22;10509853;27;20526;-78
2024/01/18 02:21:57;;;;;;;31.45;25.42;;;;;;;-3.57;100.00;98973.44;10510809;27;20064;-78
2024/01/18 02:26:58;;;;;;;34.83;26.43;;;;;;;-3.56;100.00;98961.56;10472877;28;20071;-78
2024/01/18 02:31:58;;;;;;;33.50;24.37;;;;;;;-3.59;100.00;98962.22;10479582;28;20079;-78
2024/01/18 02:36:59;;;;;;;38.67;24.47;;;;;;;-3.62;100.00;98966.22;10492425;28;20055;-78
2024/01/18 02:42:00;;;;;;;37.20;25.03;;;;;;;-3.66;100.00;98964.22;10466506;28;20124;-78
2024/01/18 02:47:00;;;;;;;38.27;26.33;;;;;;;-3.71;100.00;98969.88;10519943;27;20040;-78
2024/01/18 02:52:01;;;;;;;33.77;21.47;;;;;;;-3.74;100.00;98958.53;10519982;27;20047;-78
2024/01/18 02:57:01;;;;;;;31.43;24.00;;;;;;;-3.75;100.00;98970.44;10512856;27;20189;-78
2024/01/18 03:02:02;;;;;;;28.57;18.00;;;;;;;-3.79;100.00;98971.00;10519739;27;20036;-78
2024/01/18 03:07:03;;;;;;;32.10;24.53;;;;;;;-3.79;100.00;98970.09;10523248;27;20039;-79
2024/01/18 03:12:04;;;;;;;34.33;24.63;;;;;;;-3.85;100.00;98973.09;10512204;27;20051;-79
2024/01/18 03:17:04;;;;;;;36.83;23.10;;;;;;;-3.86;100.00;98969.63;10520237;27;20388;-78
2024/01/18 03:22:05;;;;;;;41.37;27.83;;;;;;;-3.92;100.00;98965.75;10504479;27;20040;-78
2024/01/18 03:27:05;;;;;;;31.67;24.83;;;;;;;-4.00;100.00;98971.19;10504066;28;20070;-78
2024/01/18 03:32:05;;;;;;;34.50;26.17;;;;;;;-4.08;100.00;98973.91;10523245;28;20123;-78
2024/01/18 03:37:06;;;;;;;44.73;24.47;;;;;;;-4.13;100.00;98984.69;10522762;27;20497;-78
2024/01/18 03:42:06;;;;;;;41.03;24.20;;;;;;;-4.14;100.00;98982.03;10524134;28;20131;-78
2024/01/18 03:47:07;;;;;;;40.47;28.27;;;;;;;-4.15;100.00;98986.25;10505193;27;20135;-78
2024/01/18 03:52:07;;;;;;;43.03;28.93;;;;;;;-4.13;100.00;98971.03;10504605;27;20449;-78
2024/01/18 03:57:08;;;;;;;45.60;28.07;;;;;;;-4.15;100.00;98983.69;10508254;27;20119;-77
2024/01/18 04:02:08;;;;;;;40.60;29.40;;;;;;;-4.15;100.00;98993.91;10513627;27;20125;-78
2024/01/18 04:07:09;;;;;;;51.40;28.93;;;;;;;-4.15;100.00;99004.13;10503788;27;20050;-78
2024/01/18 04:12:09;;;;;;;43.00;31.10;;;;;;;-4.17;100.00;98998.00;10521047;27;20131;-78
2024/01/18 04:17:13;;;;;;;36.23;25.80;;;;;;;-4.21;100.00;99008.75;10502659;28;20123;-78
2024/01/18 04:22:14;;;;;;;44.03;31.48;;;;;;;-4.25;100.00;99014.41;10470647;28;20384;-78
2024/01/18 04:27:14;;;;;;;40.00;26.03;;;;;;;-4.28;100.00;98997.22;10474578;28;20124;-78
2024/01/18 04:32:15;;;;;;;39.13;25.33;;;;;;;-4.30;100.00;99013.19;10479848;28;20064;-77
2024/01/18 04:37:15;;;;;;;41.47;28.53;;;;;;;-4.36;100.00;99005.03;10496873;28;20456;-78
2024/01/18 04:42:16;;;;;;;37.93;27.63;;;;;;;-4.39;100.00;99013.38;10517387;28;20051;-77
2024/01/18 04:47:17;;;;;;;45.30;31.60;;;;;;;-4.42;100.00;99026.78;10522593;28;20123;-77
2024/01/18 04:52:17;;;;;;;34.20;23.00;;;;;;;-4.45;100.00;99031.66;10521881;27;20372;-78
2024/01/18 04:57:18;;;;;;;44.33;32.37;;;;;;;-4.45;100.00;99044.44;10520924;28;20127;-78
2024/01/18 05:02:19;;;;;;;40.70;28.73;;;;;;;-4.46;100.00;99040.09;10481950;28;20515;-77
2024/01/18 05:07:20;;;;;;;34.92;30.35;;;;;;;-4.49;100.00;99042.41;10484036;28;20090;-76
2024/01/18 05:12:23;;;;;;;48.20;31.27;;;;;;;-4.55;100.00;99059.81;10479998;28;20048;-77
2024/01/18 05:17:29;;;;;;;45.20;29.80;;;;;;;-4.59;100.00;99060.34;10482520;28;20433;-77
2024/01/18 05:22:33;;;;;;;45.50;33.22;;;;;;;-4.64;100.00;99064.19;10466028;28;20503;-77
2024/01/18 05:27:34;;;;;;;49.83;32.78;;;;;;;-4.65;100.00;99059.84;10475914;28;20498;-77
2024/01/18 05:32:34;;;;;;;55.80;34.43;;;;;;;-4.65;100.00;99062.41;10489305;28;20085;-78
2024/01/18 05:37:35;;;;;;;43.03;31.93;;;;;;;-4.69;100.00;99073.16;10488837;28;20189;-77
2024/01/18 05:42:35;;;;;;;43.30;30.43;;;;;;;-4.80;100.00;99073.19;10483484;28;20120;-79
2024/01/18 05:47:36;;;;;;;56.73;36.17;;;;;;;-4.81;100.00;99081.63;10459803;28;20403;-77
2024/01/18 05:52:36;;;;;;;44.33;35.00;;;;;;;-4.90;100.00;99080.88;10467682;28;20170;-78
2024/01/18 05:57:37;;;;;;;50.23;35.27;;;;;;;-4.97;100.00;99088.81;10481733;27;20099;-77
2024/01/18 06:02:38;;;;;;;44.03;30.77;;;;;;;-5.07;100.00;99108.50;10485830;28;20060;-78
2024/01/18 06:07:38;;;;;;;49.30;35.07;;;;;;;-5.18;100.00;99110.19;10479008;28;20067;-79
2024/01/18 06:12:39;;;;;;;35.60;28.33;;;;;;;-5.39;100.00;99114.41;10475357;28;20139;-78
2024/01/18 06:17:39;;;;;;;57.53;30.23;;;;;;;-5.54;100.00;99126.81;10485462;28;20044;-78
2024/01/18 06:22:40;;;;;;;30.03;19.03;;;;;;;-5.66;100.00;99141.06;10470575;28;20519;-78
2024/01/18 06:27:40;;;;;;;34.10;24.13;;;;;;;-5.79;100.00;99139.13;10484118;28;20067;-78
2024/01/18 06:32:42;;;;;;;56.60;28.63;;;;;;;-5.96;100.00;99148.78;10499524;28;20115;-78
2024/01/18 06:37:42;;;;;;;;;;;;;;;-6.11;100.00;99153.53;10520621;27;20415;-78
2024/01/18 06:42:43;;;;;;;40.80;32.27;;;;;;;-6.29;100.00;99160.47;10505976;27;19927;-78
2024/01/18 06:47:43;;;;;;;23.57;17.83;;;;;;;-6.54;100.00;99154.91;10518217;27;20040;-78
2024/01/18 06:52:44;;;;;;;44.70;30.33;;;;;;;-6.70;100.00;99173.00;10512822;27;20059;-78
2024/01/18 06:57:48;;;;;;;51.72;33.55;;;;;;;-6.99;100.00;99189.13;10493852;27;20502;-77
2024/01/18 07:02:50;;;;;;;45.20;33.90;;;;;;;-7.01;100.00;99191.56;10500155;27;20511;-78
2024/01/18 07:07:51;;;;;;;38.63;28.60;;;;;;;-7.13;100.00;99198.09;10461728;28;20037;-78
2024/01/18 07:12:51;;;;;;;40.97;29.23;;;;;;;-7.07;100.00;99203.72;10476424;28;20036;-78
2024/01/18 07:17:52;;;;;;;35.83;26.37;;;;;;;-7.13;100.00;99213.34;10476919;28;20040;-77
2024/01/18 07:23:06;;;;;;;48.83;30.75;;;;;;;-7.15;100.00;99225.03;10478146;28;20037;-78
2024/01/18 07:28:07;;;;;;;37.55;27.05;;;;;;;-7.27;100.00;99220.59;10462782;28;20036;-79
2024/01/18 07:33:07;;;;;;;48.63;28.33;;;;;;;-7.31;100.00;99235.44;10441242;28;20033;-79
2024/01/18 07:38:08;;;;;;;31.93;26.63;;;;;;;-7.35;100.00;99246.06;10471127;28;20056;-82
2024/01/18 07:43:08;;;;;;;43.73;34.60;;;;;;;-7.47;100.00;99250.94;10480382;28;20146;-78
2024/01/18 07:48:09;;;;;;;47.73;28.83;;;;;;;-7.49;100.00;99255.84;10479637;28;20039;-77
2024/01/18 07:53:11;;;;;;;42.77;30.37;;;;;;;-7.49;100.00;99266.03;10473481;28;20127;-77
2024/01/18 07:58:11;;;;;;;66.88;47.03;;;;;;;-7.61;100.00;99275.97;10475020;28;20496;-77
2024/01/18 08:03:12;;;;;;;49.57;31.97;;;;;;;-7.63;100.00;99282.53;10479009;28;20124;-77
2024/01/18 08:08:12;;;;;;;43.70;26.43;;;;;;;-7.67;100.00;99285.56;10473710;28;20044;-77
2024/01/18 08:13:13;;;;;;;36.90;24.13;;;;;;;-7.64;100.00;99288.38;10450101;28;20123;-77
2024/01/18 08:18:14;;;;;;;37.63;29.47;;;;;;;-7.61;100.00;99292.84;10462513;28;20148;-77
2024/01/18 08:23:15;;;;;;;44.72;25.98;;;;;;;-7.56;100.00;99299.25;10480698;28;20491;-77
2024/01/18 08:28:17;;;;;;;47.37;28.47;;;;;;;-7.56;100.00;99304.31;10479137;28;20051;-77
2024/01/18 08:33:18;;;;;;;38.10;29.05;;;;;;;-7.48;100.00;99313.56;10468847;28;20259;-78
2024/01/18 08:38:21;;;;;;;42.30;27.27;;;;;;;-7.40;100.00;99320.25;10467922;28;20060;-77
2024/01/18 08:43:26;;;;;;;43.67;29.77;;;;;;;-7.29;100.00;99333.97;10472389;28;20044;-77
2024/01/18 08:48:27;;;;;;;33.63;26.55;;;;;;;-7.21;100.00;99339.75;10470642;28;20037;-77
2024/01/18 08:53:27;;;;;;;42.87;32.27;;;;;;;-7.11;100.00;99355.13;10473061;28;20067;-77
2024/01/18 08:58:28;;;;;;;38.90;29.60;;;;;;;-7.06;100.00;99370.81;10484954;28;20124;-76
2024/01/18 09:03:29;;;;;;;44.00;32.20;;;;;;;-6.98;100.00;99380.06;10484631;28;20461;-77
2024/01/18 09:08:29;;;;;;;55.90;36.87;;;;;;;-6.90;100.00;99378.22;10484448;28;20048;-78
2024/01/18 09:13:30;;;;;;;45.37;33.10;;;;;;;-6.81;100.00;99388.34;10458783;28;20070;-77
2024/01/18 09:18:30;;;;;;;53.57;36.60;;;;;;;-6.72;100.00;99407.00;10485126;28;20131;-77
2024/01/18 09:23:31;;;;;;;48.77;38.00;;;;;;;-6.40;100.00;99403.97;10485093;28;20080;-77
2024/01/18 09:28:31;;;;;;;51.37;38.93;;;;;;;-6.11;100.00;99412.44;10474880;28;20750;-77
2024/01/18 09:33:32;;;;;;;69.63;49.53;;;;;;;-5.67;100.00;99422.25;10477860;28;20062;-77
2024/01/18 09:38:33;;;;;;;98.43;74.83;;;;;;;-5.26;100.00;99424.06;10479682;28;20132;-76
2024/01/18 09:43:35;;;;;;;79.13;56.15;;;;;;;-4.88;100.00;99439.22;10477485;27;20101;-77
2024/01/18 09:48:36;;;;;;;67.88;47.03;;;;;;;-4.55;100.00;99449.63;10481079;28;20408;-77
2024/01/18 09:53:39;;;;;;;74.17;54.67;;;;;;;-4.32;100.00;99449.00;10474217;28;20033;-77
2024/01/18 09:58:39;;;;;;;80.28;48.63;;;;;;;-4.05;100.00;99460.63;10482745;28;20036;-76
2024/01/18 10:03:40;;;;;;;62.20;46.57;;;;;;;-3.77;100.00;99459.44;10474172;28;20459;-76
2024/01/18 10:08:40;;;;;;;69.73;48.03;;;;;;;-3.60;100.00;99478.72;10475871;28;20156;-76
2024/01/18 10:13:54;;;;;;;72.93;45.80;;;;;;;-3.32;100.00;99481.84;10522143;27;20093;-76
2024/01/18 10:19:02;;;;;;;60.60;46.13;;;;;;;-3.10;100.00;99494.69;10536764;27;20044;-75
2024/01/18 10:24:08;;;;;;;64.93;45.58;;;;;;;-2.81;100.00;99500.31;10478184;28;20071;-77
2024/01/18 10:29:09;;;;;;;59.25;40.92;;;;;;;-2.32;100.00;99503.25;10471939;28;20781;-77
2024/01/18 10:34:10;;;;;;;51.17;35.73;;;;;;;-0.83;100.00;99503.84;10481273;28;20131;-77
2024/01/18 10:39:17;;;;;;;37.73;23.73;;;;;;;2.27;100.00;99488.47;10470258;28;20090;-78
2024/01/18 10:44:18;;;;;;;22.52;17.73;;;;;;;4.53;100.00;99425.47;10500556;27;20527;-79
2024/01/18 10:49:18;;;;;;;19.67;15.93;;;;;;;5.18;100.00;99458.72;10524232;27;20039;-80
2024/01/18 10:54:19;;;;;;;20.25;13.52;;;;;;;5.51;100.00;99653.16;10486633;27;20047;-78
2024/01/18 10:59:20;;;;;;;17.13;14.23;;;;;;;6.90;100.00;99735.75;10449985;28;20044;-78
2024/01/18 11:04:20;;;;;;;14.70;10.30;;;;;;;7.98;100.00;99803.63;10471271;28;20039;-79
2024/01/18 11:09:23;;;;;;;19.58;10.05;;;;;;;8.73;100.00;99831.81;10466428;28;20037;-80
2024/01/18 11:14:25;;;;;;;14.85;11.18;;;;;;;8.17;100.00;99853.06;10448909;28;20040;-80
2024/01/18 11:19:41;;;;;;;16.65;10.75;;;;;;;6.87;100.00;99863.97;10480929;28;20052;-81
2024/01/18 11:24:42;;;;;;;16.33;9.73;;;;;;;4.75;100.00;99856.81;10523117;27;20157;-78
2024/01/18 11:29:42;;;;;;;19.77;8.93;;;;;;;3.63;100.00;99829.81;10520064;28;20040;-81
2024/01/18 11:34:45;;;;;;;15.57;10.38;;;;;;;4.10;100.00;99824.72;10522858;28;20059;-78
2024/01/18 11:39:48;;;;;;;;;;;;;;;5.29;100.00;99831.13;10523812;28;20395;-77
2024/01/18 11:45:03;;;;;;;12.02;7.80;;;;;;;5.55;100.00;99862.72;10522094;27;19920;-78
2024/01/18 11:55:30;;;;;;;17.13;11.55;;;;;;;3.76;100.00;99859.88;10504189;28;20043;-78
2024/01/18 12:00:31;;;;;;;11.95;7.82;;;;;;;3.09;100.00;99857.63;10480462;28;20072;-77
2024/01/18 12:05:32;;;;;;;10.35;7.40;;;;;;;3.55;100.00;99856.94;10519154;28;20035;-77
2024/01/18 12:10:34;;;;;;;11.48;6.97;;;;;;;3.51;100.00;99855.84;10520839;27;20164;-77
2024/01/18 12:15:34;;;;;;;16.85;7.53;;;;;;;2.94;100.00;99857.59;10520519;27;20039;-77
2024/01/18 12:20:35;;;;;;;11.63;6.00;;;;;;;4.15;100.00;99861.22;10522108;28;20114;-76
2024/01/18 12:25:35;;;;;;;12.70;7.95;;;;;;;5.14;100.00;99877.91;10518924;28;20138;-76
2024/01/18 12:30:42;;;;;;;9.15;7.18;;;;;;;5.52;100.00;99900.63;10504161;28;20135;-78
2024/01/18 12:35:46;;;;;;;7.32;5.78;;;;;;;4.78;100.00;99908.81;10531692;28;20127;-78
2024/01/18 12:40:46;;;;;;;13.63;7.13;;;;;;;3.98;100.00;99910.31;10516469;28;20427;-77
2024/01/18 12:45:50;;;;;;;9.23;5.57;;;;;;;3.95;100.00;99910.16;10529212;28;20070;-78
2024/01/18 12:50:51;;;;;;;7.72;5.82;;;;;;;4.16;100.00;99909.63;10529343;27;20064;-78
2024/01/18 12:55:51;;;;;;;8.13;5.07;;;;;;;5.10;100.00;99921.75;10529481;27;20159;-79
2024/01/18 13:00:52;;;;;;;13.13;4.90;;;;;;;4.48;100.00;99939.97;10528591;27;20121;-78
2024/01/18 13:05:52;;;;;;;11.98;5.07;;;;;;;5.14;100.00;99952.25;10529075;27;20767;-77
2024/01/18 13:10:53;;;;;;;18.95;9.68;;;;;;;5.84;100.00;99966.31;10527422;28;20123;-78
2024/01/18 13:15:57;;;;;;;10.02;5.47;;;;;;;6.60;100.00;99985.75;10527021;27;20480;-80
2024/01/18 13:20:57;;;;;;;6.85;3.97;;;;;;;6.84;100.00;99998.16;10494534;27;20047;-78
2024/01/18 13:25:58;;;;;;;17.35;9.00;;;;;;;5.75;100.00;100005.66;10521243;27;20055;-78
2024/01/18 13:30:59;;;;;;;30.05;16.48;;;;;;;4.97;100.00;100013.56;10492493;28;20032;-78
2024/01/18 13:35:59;;;;;;;13.13;9.40;;;;;;;4.34;100.00;100019.47;10506066;27;20119;-78
2024/01/18 13:41:00;;;;;;;18.52;11.05;;;;;;;3.33;100.00;100018.59;10522547;27;20376;-80
2024/01/18 13:46:01;;;;;;;5.88;4.07;;;;;;;3.33;100.00;100016.00;10513010;27;20246;-77
2024/01/18 13:51:02;;;;;;;5.15;3.22;;;;;;;3.53;100.00;100034.47;10524736;27;20044;-78
2024/01/18 13:56:03;;;;;;;7.47;2.90;;;;;;;4.05;100.00;100046.25;10475136;28;20548;-76
2024/01/18 14:01:04;;;;;;;2.10;1.38;;;;;;;5.49;100.00;100057.06;10482950;28;20040;-77
2024/01/18 14:06:05;;;;;;;6.20;2.58;;;;;;;6.68;100.00;100075.44;10480288;28;20541;-78
2024/01/18 14:11:05;;;;;;;6.38;1.98;;;;;;;5.96;100.00;100093.31;10455134;28;20052;-77
2024/01/18 14:16:06;;;;;;;8.43;2.67;;;;;;;3.74;100.00;100109.97;10462681;28;20120;-77
2024/01/18 14:21:07;;;;;;;3.90;2.17;;;;;;;2.34;100.00;100090.59;10471528;28;20032;-77
2024/01/18 14:26:07;;;;;;;6.38;2.88;;;;;;;1.86;100.00;100082.16;10461887;28;20174;-77
2024/01/18 14:31:09;;;;;;;5.03;2.97;;;;;;;1.16;100.00;100084.09;10472680;27;20122;-77
2024/01/18 14:36:09;;;;;;;4.03;2.90;;;;;;;0.65;100.00;100072.63;10517337;27;20042;-79
2024/01/18 14:41:10;;;;;;;5.43;2.53;;;;;;;0.47;100.00;100067.91;10525634;27;20509;-78
2024/01/18 14:46:11;;;;;;;6.45;2.85;;;;;;;0.40;100.00;100087.16;10501000;27;20181;-79
2024/01/18 14:51:12;;;;;;;5.17;2.00;;;;;;;0.26;100.00;100098.97;10499485;28;20490;-78
2024/01/18 14:56:12;;;;;;;6.33;3.23;;;;;;;0.04;100.00;100105.81;10516783;27;20119;-78
2024/01/18 15:01:16;;;;;;;5.65;2.95;;;;;;;-0.31;100.00;100107.44;10514979;27;20422;-78
2024/01/18 15:06:16;;;;;;;3.83;1.85;;;;;;;-0.71;100.00;100110.28;10509450;27;20040;-78
2024/01/18 15:11:17;;;;;;;8.73;3.57;;;;;;;-1.10;100.00;100102.06;10497529;27;20437;-80
2024/01/18 15:16:19;;;;;;;6.23;2.67;;;;;;;-1.43;100.00;100083.13;10512348;27;20089;-78
2024/01/18 15:21:20;;;;;;;4.75;2.30;;;;;;;-1.81;100.00;100076.56;10510975;27;20044;-78
2024/01/18 15:26:20;;;;;;;4.50;2.00;;;;;;;-2.17;100.00;100067.53;10506593;27;20117;-77
2024/01/18 15:31:28;;;;;;;3.43;2.77;;;;;;;-2.46;100.00;100063.38;10522754;27;20081;-78
2024/01/18 15:36:33;;;;;;;4.63;1.95;;;;;;;-2.75;100.00;100060.88;10519464;28;20496;-78
2024/01/18 15:41:34;;;;;;;4.40;2.10;;;;;;;-2.95;100.00;100057.44;10513124;27;20032;-78
2024/01/18 15:46:35;;;;;;;5.32;3.00;;;;;;;-3.12;100.00;100066.19;10523438;28;20483;-78
2024/01/18 15:51:35;;;;;;;6.17;2.40;;;;;;;-3.25;100.00;100072.75;10521602;27;20032;-78
2024/01/18 15:56:36;;;;;;;15.03;6.27;;;;;;;-3.43;100.00;100095.06;10522597;28;20055;-78
2024/01/18 16:01:36;;;;;;;7.87;4.63;;;;;;;-3.51;100.00;100100.22;10523118;28;20174;-78
2024/01/18 16:06:37;;;;;;;5.67;3.77;;;;;;;-3.63;100.00;100116.25;10523502;27;20126;-78
2024/01/18 16:11:37;;;;;;;9.40;3.93;;;;;;;-3.70;100.00;100134.34;10517152;27;20152;-78
2024/01/18 16:16:38;;;;;;;6.27;2.37;;;;;;;-3.79;100.00;100141.16;10519186;28;20123;-81
2024/01/18 16:21:38;;;;;;;7.43;2.90;;;;;;;-3.90;100.00;100156.41;10514586;27;20044;-79
2024/01/18 16:26:39;;;;;;;5.60;3.40;;;;;;;-4.00;100.00;100169.09;10517763;27;20131;-79
2024/01/18 16:31:40;;;;;;;7.83;5.13;;;;;;;-4.01;100.00;100178.44;10484102;28;20508;-81
2024/01/18 16:36:40;;;;;;;4.90;3.37;;;;;;;-4.00;100.00;100190.47;10463420;28;20060;-78
2024/01/18 16:41:41;;;;;;;20.67;4.50;;;;;;;-4.11;100.00;100188.53;10471738;28;20067;-78
2024/01/18 16:46:41;;;;;;;6.10;4.27;;;;;;;-4.25;100.00;100207.66;10455591;28;20502;-77
2024/01/18 16:51:42;;;;;;;8.10;3.80;;;;;;;-4.30;100.00;100214.91;10466429;28;20044;-78
2024/01/18 16:56:42;;;;;;;4.83;2.87;;;;;;;-4.35;100.00;100234.00;10438016;28;20123;-77
2024/01/18 17:01:43;;;;;;;13.87;8.20;;;;;;;-4.35;100.00;100241.66;10444593;28;20140;-78
2024/01/18 17:06:44;;;;;;;5.90;3.53;;;;;;;-4.29;100.00;100252.47;10444264;28;20065;-78
2024/01/18 17:11:44;;;;;;;8.32;5.43;;;;;;;-4.33;100.00;100265.72;10448641;28;20044;-79
2024/01/18 17:16:45;;;;;;;14.33;5.23;;;;;;;-4.38;100.00;100266.91;10500987;27;20471;-78
2024/01/18 17:21:45;;;;;;;9.47;4.93;;;;;;;-4.45;100.00;100274.72;10503119;27;20123;-78
2024/01/18 17:26:46;;;;;;;9.83;6.87;;;;;;;-4.46;100.00;100281.47;10487601;28;20511;-79
2024/01/18 17:31:47;;;;;;;11.90;7.17;;;;;;;-4.57;100.00;100290.66;10504124;28;20052;-77
2024/01/18 17:36:48;;;;;;;19.13;7.97;;;;;;;-4.58;100.00;100306.75;10489246;28;20722;-79
2024/01/18 17:41:49;;;;;;;18.65;8.95;;;;;;;-4.75;100.00;100307.59;10489110;28;21644;-77
2024/01/18 17:46:54;;;;;;;10.27;8.07;;;;;;;-4.81;100.00;100319.75;10540865;27;20078;-79
2024/01/18 17:51:54;;;;;;;17.90;10.93;;;;;;;-4.83;100.00;100325.50;10490501;28;20090;-81
2024/01/18 17:56:55;;;;;;;21.63;10.43;;;;;;;-4.77;100.00;100341.41;10480373;28;20036;-79
2024/01/18 18:01:56;;;;;;;20.17;11.40;;;;;;;-4.86;100.00;100338.81;10482866;28;20115;-80
2024/01/18 18:06:56;;;;;;;13.65;11.30;;;;;;;-4.94;100.00;100347.38;10486030;28;20048;-78
2024/01/18 18:11:58;;;;;;;18.00;11.87;;;;;;;-5.02;100.00;100347.50;10488995;28;20028;-78
2024/01/18 18:16:58;;;;;;;20.80;15.93;;;;;;;-5.11;100.00;100354.22;10480225;28;20403;-78
2024/01/18 18:21:59;;;;;;;20.90;14.87;;;;;;;-5.15;100.00;100364.88;10483925;28;20128;-78
2024/01/18 18:26:59;;;;;;;21.83;14.57;;;;;;;-5.22;100.00;100365.91;10485999;28;20127;-80
2024/01/18 18:32:01;;;;;;;44.63;14.60;;;;;;;-5.25;100.00;100378.34;10475378;28;20077;-78
2024/01/18 18:37:01;;;;;;;15.02;12.48;;;;;;;-5.35;100.00;100385.81;10464064;28;20097;-78
2024/01/18 18:42:02;;;;;;;21.47;14.90;;;;;;;-5.43;100.00;100402.84;10479503;28;20570;-79
2024/01/18 18:47:03;;;;;;;19.83;14.77;;;;;;;-5.45;100.00;100417.09;10481008;28;20122;-78
2024/01/18 18:52:03;;;;;;;21.17;15.37;;;;;;;-5.55;100.00;100432.19;10478779;28;20852;-78
2024/01/18 18:57:04;;;;;;;28.57;16.63;;;;;;;-5.48;100.00;100427.91;10481207;28;20518;-79
2024/01/18 19:02:06;;;;;;;22.90;18.63;;;;;;;-5.56;100.00;100444.06;10477867;28;20064;-80
2024/01/18 19:07:06;;;;;;;21.83;16.90;;;;;;;-5.61;100.00;100452.88;10458731;28;20123;-80
2024/01/18 19:12:07;;;;;;;26.53;19.07;;;;;;;-5.70;100.00;100469.75;10464782;28;20148;-79
2024/01/18 19:17:07;;;;;;;24.07;16.20;;;;;;;-5.71;100.00;100486.69;10466410;28;20039;-79
2024/01/18 19:22:08;;;;;;;22.63;17.67;;;;;;;-5.57;100.00;100487.22;10447426;28;20043;-79
2024/01/18 19:27:10;;;;;;;28.17;18.57;;;;;;;-5.64;100.00;100506.09;10514797;28;20036;-79
2024/01/18 19:32:11;;;;;;;38.47;19.77;;;;;;;-5.76;100.00;100515.88;10483772;28;20029;-79
2024/01/18 19:37:11;;;;;;;22.97;20.33;;;;;;;-5.82;100.00;100531.44;10475822;28;20395;-80
2024/01/18 19:42:14;;;;;;;31.47;20.60;;;;;;;-5.88;100.00;100543.53;10459892;28;20036;-80
2024/01/18 19:47:15;;;;;;;35.17;19.75;;;;;;;-5.95;100.00;100554.69;10458213;28;20127;-79
2024/01/18 19:52:16;;;;;;;39.33;22.67;;;;;;;-5.96;100.00;100552.88;10463474;28;20054;-80
2024/01/18 19:57:16;;;;;;;30.23;20.33;;;;;;;-5.98;100.00;100564.56;10464367;28;20602;-80
2024/01/18 20:02:17;;;;;;;33.33;20.40;;;;;;;-5.95;100.00;100577.63;10474557;28;20036;-79
2024/01/18 20:07:17;;;;;;;26.73;19.67;;;;;;;-5.99;100.00;100590.78;10456783;28;20045;-80
2024/01/18 20:12:20;;;;;;;30.97;22.13;;;;;;;-6.00;100.00;100599.16;10487178;27;20096;-79
2024/01/18 20:17:21;;;;;;;33.70;23.92;;;;;;;-6.03;100.00;100605.63;10507264;27;20078;-79
2024/01/18 20:22:21;;;;;;;37.50;19.93;;;;;;;-6.06;100.00;100614.75;10504460;27;20515;-78
2024/01/18 20:27:22;;;;;;;34.57;20.67;;;;;;;-6.12;100.00;100615.69;10506357;27;20132;-79
2024/01/18 20:32:23;;;;;;;30.03;19.07;;;;;;;-6.11;100.00;100630.25;10505544;27;20046;-79
2024/01/18 20:37:23;;;;;;;31.55;21.70;;;;;;;-6.10;100.00;100640.63;10499834;27;20430;-79
2024/01/18 20:42:24;;;;;;;25.87;19.77;;;;;;;-6.13;100.00;100642.84;10506398;27;20127;-79
2024/01/18 20:47:24;;;;;;;30.93;22.47;;;;;;;-6.13;100.00;100665.78;10505021;27;20403;-79
2024/01/18 20:52:25;;;;;;;25.93;21.77;;;;;;;-6.13;100.00;100669.94;10497025;27;20090;-79
2024/01/18 20:57:26;;;;;;;27.43;19.80;;;;;;;-6.09;100.00;100677.19;10512872;27;20510;-79
2024/01/18 21:02:26;;;;;;;26.33;20.70;;;;;;;-5.99;100.00;100684.19;10513597;27;20048;-79
2024/01/18 21:07:27;;;;;;;33.27;23.97;;;;;;;-5.95;100.00;100697.44;10513403;27;20310;-79
2024/01/18 21:12:28;;;;;;;35.63;23.88;;;;;;;-6.07;100.00;100701.19;10517038;27;20047;-79
2024/01/18 21:17:28;;;;;;;29.77;20.53;;;;;;;-6.14;100.00;100697.09;10514169;27;20127;-79
2024/01/18 21:22:29;;;;;;;34.57;23.03;;;;;;;-6.21;100.00;100703.13;10503401;27;20567;-79
2024/01/18 21:27:30;;;;;;;34.22;25.13;;;;;;;-6.27;100.00;100714.28;10485757;27;20040;-79
2024/01/18 21:32:31;;;;;;;41.97;27.37;;;;;;;-6.28;100.00;100720.13;10514248;27;20119;-79
2024/01/18 21:37:31;;;;;;;24.67;21.83;;;;;;;-6.36;100.00;100721.78;10524293;27;20483;-79
2024/01/18 21:42:32;;;;;;;40.93;27.30;;;;;;;-6.41;100.00;100728.94;10501698;27;20028;-79
2024/01/18 21:47:32;;;;;;;29.87;22.23;;;;;;;-6.55;100.00;100736.66;10516217;28;20404;-79
2024/01/18 21:52:33;;;;;;;35.17;23.87;;;;;;;-6.62;100.00;100737.59;10504362;28;20044;-79
2024/01/18 21:57:33;;;;;;;37.70;24.60;;;;;;;-6.73;100.00;100753.28;10513104;28;20147;-78
2024/01/18 22:02:34;;;;;;;41.37;28.13;;;;;;;-6.79;100.00;100751.84;10520514;27;20124;-78
2024/01/18 22:07:35;;;;;;;30.40;24.75;;;;;;;-6.89;100.00;100759.16;10492700;27;20119;-79
2024/01/18 22:12:35;;;;;;;48.67;28.90;;;;;;;-6.84;100.00;100767.34;10518640;27;20124;-79
2024/01/18 22:17:36;;;;;;;41.37;27.70;;;;;;;-6.81;100.00;100763.50;10515422;27;20127;-78
2024/01/18 22:22:36;;;;;;;40.63;28.10;;;;;;;-6.79;100.00;100777.28;10512028;27;20127;-78
2024/01/18 22:27:37;;;;;;;44.67;29.57;;;;;;;-6.77;100.00;100774.94;10523369;27;20059;-78
2024/01/18 22:32:37;;;;;;;54.83;33.17;;;;;;;-6.67;100.00;100776.88;10504373;28;20245;-78
2024/01/18 22:37:38;;;;;;;37.20;29.23;;;;;;;-6.87;100.00;100800.06;10477456;28;20064;-78
2024/01/18 22:42:39;;;;;;;39.43;28.17;;;;;;;-6.90;100.00;100815.88;10501832;27;20151;-79